Woodbridge, California
Current Conditions -  °F | °C
As of 6:55 AM on Thursday 30 Oct 2014 (Local Time) from KSCK Reporting Station
Clear Clear  
Wind Chill: 56°   Ceiling: Unl
Heat Index: 56°   Visibility: 10mi
Dew Point: 44°   Wind: 7mph
Humidity: 64%   Direction: 110°ESE
Pressure: 29.94"   Gusts: NA
Location:  38.15°N, 121.3°W
Report Text: KSCK 301355Z AUTO 11006KT 10SM CLR 13/07 A2994 RMK AO2 SLP137 T01330067
Loading
Personal Weather Stations






























Interactive Weather Map
Tropical Storm Tracking
New forecast layout! Learn more

10-Day Weather Forecast

Advertisements
Track Severe Weather on mobile